sensor_id;sensor_type;location;lat;lon;timestamp;pressure;altitude;pressure_sealevel;temperature
6498;BMP280;3282;48.358;10.958;2022-07-23T00:01:21;96324.88;;;26.01
6498;BMP280;3282;48.358;10.958;2022-07-23T00:03:53;96317.91;;;26.00
6498;BMP280;3282;48.358;10.958;2022-07-23T00:06:22;96326.22;;;26.05
6498;BMP280;3282;48.358;10.958;2022-07-23T00:08:48;96326.88;;;26.00
6498;BMP280;3282;48.358;10.958;2022-07-23T00:11:15;96325.97;;;25.94
6498;BMP280;3282;48.358;10.958;2022-07-23T00:13:42;96327.59;;;25.86
6498;BMP280;3282;48.358;10.958;2022-07-23T00:16:09;96323.81;;;25.74
6498;BMP280;3282;48.358;10.958;2022-07-23T00:18:36;96344.78;;;25.52
6498;BMP280;3282;48.358;10.958;2022-07-23T00:21:02;96361.88;;;25.38
6498;BMP280;3282;48.358;10.958;2022-07-23T00:23:29;96371.03;;;25.25
6498;BMP280;3282;48.358;10.958;2022-07-23T00:25:57;96391.09;;;25.13
6498;BMP280;3282;48.358;10.958;2022-07-23T00:28:24;96394.94;;;25.06
6498;BMP280;3282;48.358;10.958;2022-07-23T00:30:50;96397.34;;;24.95
6498;BMP280;3282;48.358;10.958;2022-07-23T00:33:17;96391.59;;;24.83
6498;BMP280;3282;48.358;10.958;2022-07-23T00:35:44;96402.25;;;24.81
6498;BMP280;3282;48.358;10.958;2022-07-23T00:38:10;96390.22;;;24.79
6498;BMP280;3282;48.358;10.958;2022-07-23T00:40:37;96387.78;;;24.71
6498;BMP280;3282;48.358;10.958;2022-07-23T00:43:05;96399.50;;;24.72
6498;BMP280;3282;48.358;10.958;2022-07-23T00:45:32;96413.78;;;24.76
6498;BMP280;3282;48.358;10.958;2022-07-23T00:47:59;96415.59;;;24.79
6498;BMP280;3282;48.358;10.958;2022-07-23T00:50:26;96460.34;;;24.85
6498;BMP280;3282;48.358;10.958;2022-07-23T00:52:54;96469.59;;;24.88
6498;BMP280;3282;48.358;10.958;2022-07-23T00:55:21;96482.25;;;24.85
6498;BMP280;3282;48.358;10.958;2022-07-23T00:57:50;96491.34;;;24.92
6498;BMP280;3282;48.358;10.958;2022-07-23T01:00:17;96514.47;;;24.91
6498;BMP280;3282;48.358;10.958;2022-07-23T01:02:44;96507.00;;;24.82
6498;BMP280;3282;48.358;10.958;2022-07-23T01:05:13;96513.81;;;24.77
6498;BMP280;3282;48.358;10.958;2022-07-23T01:07:40;96521.84;;;24.71
6498;BMP280;3282;48.358;10.958;2022-07-23T01:10:07;96537.81;;;24.64
6498;BMP280;3282;48.358;10.958;2022-07-23T01:12:55;96530.75;;;24.44
6498;BMP280;3282;48.358;10.958;2022-07-23T01:15:22;96515.47;;;24.24
6498;BMP280;3282;48.358;10.958;2022-07-23T01:17:50;96520.41;;;24.07
6498;BMP280;3282;48.358;10.958;2022-07-23T01:20:17;96500.72;;;23.90
6498;BMP280;3282;48.358;10.958;2022-07-23T01:22:44;96482.59;;;23.74
6498;BMP280;3282;48.358;10.958;2022-07-23T01:25:11;96507.00;;;23.55
6498;BMP280;3282;48.358;10.958;2022-07-23T01:27:42;96530.56;;;23.39
6498;BMP280;3282;48.358;10.958;2022-07-23T01:30:09;96513.38;;;23.17
6498;BMP280;3282;48.358;10.958;2022-07-23T01:32:36;96520.44;;;22.79
6498;BMP280;3282;48.358;10.958;2022-07-23T01:35:03;96520.34;;;22.69
6498;BMP280;3282;48.358;10.958;2022-07-23T01:37:30;96506.81;;;22.53
6498;BMP280;3282;48.358;10.958;2022-07-23T01:39:57;96509.97;;;22.25
6498;BMP280;3282;48.358;10.958;2022-07-23T01:42:24;96479.22;;;22.12
6498;BMP280;3282;48.358;10.958;2022-07-23T01:44:52;96461.22;;;22.14
6498;BMP280;3282;48.358;10.958;2022-07-23T01:47:20;96428.13;;;22.03
6498;BMP280;3282;48.358;10.958;2022-07-23T01:49:50;96441.06;;;21.99
6498;BMP280;3282;48.358;10.958;2022-07-23T01:52:41;96441.72;;;21.90
6498;BMP280;3282;48.358;10.958;2022-07-23T01:55:08;96450.41;;;21.85
6498;BMP280;3282;48.358;10.958;2022-07-23T01:57:36;96425.34;;;21.77
6498;BMP280;3282;48.358;10.958;2022-07-23T02:00:05;96429.47;;;21.82
6498;BMP280;3282;48.358;10.958;2022-07-23T02:02:38;96429.91;;;21.80
6498;BMP280;3282;48.358;10.958;2022-07-23T02:05:05;96425.91;;;21.85
6498;BMP280;3282;48.358;10.958;2022-07-23T02:07:32;96413.81;;;21.86
6498;BMP280;3282;48.358;10.958;2022-07-23T02:10:00;96413.81;;;21.86
6498;BMP280;3282;48.358;10.958;2022-07-23T02:12:27;96404.66;;;21.80
6498;BMP280;3282;48.358;10.958;2022-07-23T02:14:53;96392.97;;;21.79
6498;BMP280;3282;48.358;10.958;2022-07-23T02:17:20;96398.09;;;21.77
6498;BMP280;3282;48.358;10.958;2022-07-23T02:19:46;96401.16;;;21.79
6498;BMP280;3282;48.358;10.958;2022-07-23T02:22:13;96396.16;;;21.77
6498;BMP280;3282;48.358;10.958;2022-07-23T02:24:40;96407.47;;;21.76
6498;BMP280;3282;48.358;10.958;2022-07-23T02:27:06;96421.94;;;21.73
6498;BMP280;3282;48.358;10.958;2022-07-23T02:29:33;96417.03;;;21.68
6498;BMP280;3282;48.358;10.958;2022-07-23T02:32:00;96423.34;;;21.64
6498;BMP280;3282;48.358;10.958;2022-07-23T02:34:27;96423.88;;;21.59
6498;BMP280;3282;48.358;10.958;2022-07-23T02:36:53;96424.41;;;21.54
6498;BMP280;3282;48.358;10.958;2022-07-23T02:39:21;96421.78;;;21.50
6498;BMP280;3282;48.358;10.958;2022-07-23T02:41:47;96422.00;;;21.43
6498;BMP280;3282;48.358;10.958;2022-07-23T02:44:14;96411.00;;;21.47
6498;BMP280;3282;48.358;10.958;2022-07-23T02:46:45;96408.59;;;21.49
6498;BMP280;3282;48.358;10.958;2022-07-23T02:49:12;96394.69;;;21.47
6498;BMP280;3282;48.358;10.958;2022-07-23T02:51:38;96383.13;;;21.43
6498;BMP280;3282;48.358;10.958;2022-07-23T02:54:06;96380.06;;;21.41
6498;BMP280;3282;48.358;10.958;2022-07-23T02:56:34;96377.22;;;21.31
6498;BMP280;3282;48.358;10.958;2022-07-23T02:59:01;96367.38;;;21.21
6498;BMP280;3282;48.358;10.958;2022-07-23T03:01:28;96358.78;;;21.22
6498;BMP280;3282;48.358;10.958;2022-07-23T03:03:55;96346.25;;;21.25
6498;BMP280;3282;48.358;10.958;2022-07-23T03:06:22;96347.28;;;21.31
6498;BMP280;3282;48.358;10.958;2022-07-23T03:08:49;96340.94;;;21.34
6498;BMP280;3282;48.358;10.958;2022-07-23T03:11:15;96359.50;;;21.40
6498;BMP280;3282;48.358;10.958;2022-07-23T03:13:43;96370.50;;;21.36
6498;BMP280;3282;48.358;10.958;2022-07-23T03:16:10;96378.41;;;21.30
6498;BMP280;3282;48.358;10.958;2022-07-23T03:18:36;96383.50;;;21.28
6498;BMP280;3282;48.358;10.958;2022-07-23T03:21:06;96370.75;;;21.25
6498;BMP280;3282;48.358;10.958;2022-07-23T03:23:33;96374.34;;;21.22
6498;BMP280;3282;48.358;10.958;2022-07-23T03:26:01;96373.66;;;21.18
6498;BMP280;3282;48.358;10.958;2022-07-23T03:28:27;96374.84;;;21.17
6498;BMP280;3282;48.358;10.958;2022-07-23T03:30:54;96366.03;;;21.13
6498;BMP280;3282;48.358;10.958;2022-07-23T03:33:21;96371.91;;;21.11
6498;BMP280;3282;48.358;10.958;2022-07-23T03:35:48;96356.88;;;21.06
6498;BMP280;3282;48.358;10.958;2022-07-23T03:38:20;96354.25;;;21.03
6498;BMP280;3282;48.358;10.958;2022-07-23T03:40:47;96359.78;;;20.99
6498;BMP280;3282;48.358;10.958;2022-07-23T03:43:13;96361.91;;;20.91
6498;BMP280;3282;48.358;10.958;2022-07-23T03:45:40;96365.50;;;20.88
6498;BMP280;3282;48.358;10.958;2022-07-23T03:48:07;96375.09;;;20.93
6498;BMP280;3282;48.358;10.958;2022-07-23T03:50:33;96387.72;;;21.00
6498;BMP280;3282;48.358;10.958;2022-07-23T03:53:01;96391.13;;;21.04
6498;BMP280;3282;48.358;10.958;2022-07-23T03:55:27;96381.03;;;21.04
6498;BMP280;3282;48.358;10.958;2022-07-23T03:57:55;96373.53;;;21.08
6498;BMP280;3282;48.358;10.958;2022-07-23T04:00:22;96375.06;;;21.09
6498;BMP280;3282;48.358;10.958;2022-07-23T04:02:49;96380.81;;;21.12
6498;BMP280;3282;48.358;10.958;2022-07-23T04:05:17;96391.72;;;21.12
6498;BMP280;3282;48.358;10.958;2022-07-23T04:07:48;96399.34;;;21.17
6498;BMP280;3282;48.358;10.958;2022-07-23T04:10:15;96407.88;;;21.19
6498;BMP280;3282;48.358;10.958;2022-07-23T04:12:41;96393.03;;;21.20
6498;BMP280;3282;48.358;10.958;2022-07-23T04:15:08;96389.13;;;21.21
6498;BMP280;3282;48.358;10.958;2022-07-23T04:17:35;96382.50;;;21.22
6498;BMP280;3282;48.358;10.958;2022-07-23T04:20:02;96376.63;;;21.23
6498;BMP280;3282;48.358;10.958;2022-07-23T04:22:35;96352.56;;;21.22
6498;BMP280;3282;48.358;10.958;2022-07-23T04:25:02;96331.91;;;21.24
6498;BMP280;3282;48.358;10.958;2022-07-23T04:27:30;96337.97;;;21.29
6498;BMP280;3282;48.358;10.958;2022-07-23T04:29:56;96333.97;;;21.33
6498;BMP280;3282;48.358;10.958;2022-07-23T04:32:23;96325.41;;;21.35
6498;BMP280;3282;48.358;10.958;2022-07-23T04:34:51;96323.88;;;21.34
6498;BMP280;3282;48.358;10.958;2022-07-23T04:37:18;96319.59;;;21.33
6498;BMP280;3282;48.358;10.958;2022-07-23T04:39:44;96332.69;;;21.38
6498;BMP280;3282;48.358;10.958;2022-07-23T04:42:11;96334.22;;;21.39
6498;BMP280;3282;48.358;10.958;2022-07-23T04:44:38;96321.16;;;21.34
6498;BMP280;3282;48.358;10.958;2022-07-23T04:47:05;96339.13;;;21.44
6498;BMP280;3282;48.358;10.958;2022-07-23T04:49:32;96338.69;;;21.46
6498;BMP280;3282;48.358;10.958;2022-07-23T04:51:58;96344.78;;;21.50
6498;BMP280;3282;48.358;10.958;2022-07-23T04:54:25;96346.31;;;21.51
6498;BMP280;3282;48.358;10.958;2022-07-23T04:56:52;96343.28;;;21.49
6498;BMP280;3282;48.358;10.958;2022-07-23T04:59:18;96344.78;;;21.50
6498;BMP280;3282;48.358;10.958;2022-07-23T05:01:48;96344.78;;;21.50
6498;BMP280;3282;48.358;10.958;2022-07-23T05:04:14;96351.75;;;21.51
6498;BMP280;3282;48.358;10.958;2022-07-23T05:06:41;96350.25;;;21.50
6498;BMP280;3282;48.358;10.958;2022-07-23T05:09:08;96354.16;;;21.49
6498;BMP280;3282;48.358;10.958;2022-07-23T05:11:34;96355.69;;;21.50
6498;BMP280;3282;48.358;10.958;2022-07-23T05:14:01;96354.84;;;21.53
6498;BMP280;3282;48.358;10.958;2022-07-23T05:16:28;96357.00;;;21.58
6498;BMP280;3282;48.358;10.958;2022-07-23T05:18:59;96348.75;;;21.62
6498;BMP280;3282;48.358;10.958;2022-07-23T05:21:27;96342.75;;;21.67
6498;BMP280;3282;48.358;10.958;2022-07-23T05:23:53;96343.41;;;21.71
6498;BMP280;3282;48.358;10.958;2022-07-23T05:26:20;96350.19;;;21.80
6498;BMP280;3282;48.358;10.958;2022-07-23T05:28:47;96351.03;;;21.89
6498;BMP280;3282;48.358;10.958;2022-07-23T05:31:17;96352.47;;;21.94
6498;BMP280;3282;48.358;10.958;2022-07-23T05:33:44;96353.44;;;22.00
6498;BMP280;3282;48.358;10.958;2022-07-23T05:36:12;96342.34;;;21.95
6498;BMP280;3282;48.358;10.958;2022-07-23T05:38:45;96345.72;;;21.99
6498;BMP280;3282;48.358;10.958;2022-07-23T05:41:11;96340.28;;;21.99
6498;BMP280;3282;48.358;10.958;2022-07-23T05:43:38;96332.88;;;21.99
6498;BMP280;3282;48.358;10.958;2022-07-23T05:46:09;96332.41;;;22.01
6498;BMP280;3282;48.358;10.958;2022-07-23T05:48:38;96331.63;;;22.00
6498;BMP280;3282;48.358;10.958;2022-07-23T05:51:10;96332.53;;;21.97
6498;BMP280;3282;48.358;10.958;2022-07-23T05:53:37;96338.75;;;21.98
6498;BMP280;3282;48.358;10.958;2022-07-23T05:56:19;96344.19;;;21.98
6498;BMP280;3282;48.358;10.958;2022-07-23T05:58:45;96345.72;;;21.99
6498;BMP280;3282;48.358;10.958;2022-07-23T06:01:14;96348.09;;;21.97
6498;BMP280;3282;48.358;10.958;2022-07-23T06:03:59;96364.44;;;21.97
6498;BMP280;3282;48.358;10.958;2022-07-23T06:06:33;96349.41;;;21.79
6498;BMP280;3282;48.358;10.958;2022-07-23T06:09:00;96377.75;;;21.95
6498;BMP280;3282;48.358;10.958;2022-07-23T06:11:27;96386.69;;;21.95
6498;BMP280;3282;48.358;10.958;2022-07-23T06:13:54;96406.06;;;21.97
6498;BMP280;3282;48.358;10.958;2022-07-23T06:16:27;96441.19;;;21.95
6498;BMP280;3282;48.358;10.958;2022-07-23T06:18:54;96458.16;;;21.86
6498;BMP280;3282;48.358;10.958;2022-07-23T06:21:21;96441.25;;;21.79
6498;BMP280;3282;48.358;10.958;2022-07-23T06:24:07;96446.03;;;21.74
6498;BMP280;3282;48.358;10.958;2022-07-23T06:26:34;96452.81;;;21.83
6498;BMP280;3282;48.358;10.958;2022-07-23T06:29:01;96433.84;;;21.92
6498;BMP280;3282;48.358;10.958;2022-07-23T06:31:28;96441.06;;;21.99
6498;BMP280;3282;48.358;10.958;2022-07-23T06:33:55;96450.22;;;22.05
6498;BMP280;3282;48.358;10.958;2022-07-23T06:36:22;96439.97;;;22.09
6498;BMP280;3282;48.358;10.958;2022-07-23T06:38:48;96450.75;;;22.13
6498;BMP280;3282;48.358;10.958;2022-07-23T06:41:15;96449.47;;;22.17
6498;BMP280;3282;48.358;10.958;2022-07-23T06:43:42;96439.97;;;22.22
6498;BMP280;3282;48.358;10.958;2022-07-23T06:46:08;96436.81;;;22.24
6498;BMP280;3282;48.358;10.958;2022-07-23T06:48:36;96445.31;;;22.26
6498;BMP280;3282;48.358;10.958;2022-07-23T06:51:03;96440.22;;;22.28
6498;BMP280;3282;48.358;10.958;2022-07-23T06:53:30;96435.06;;;22.30
6498;BMP280;3282;48.358;10.958;2022-07-23T06:55:56;96425.91;;;22.24
6498;BMP280;3282;48.358;10.958;2022-07-23T06:58:23;96431.47;;;22.33
6498;BMP280;3282;48.358;10.958;2022-07-23T07:00:49;96422.50;;;22.33
6498;BMP280;3282;48.358;10.958;2022-07-23T07:03:17;96414.16;;;22.27
6498;BMP280;3282;48.358;10.958;2022-07-23T07:05:43;96410.31;;;22.24
6498;BMP280;3282;48.358;10.958;2022-07-23T07:08:10;96409.22;;;22.22
6498;BMP280;3282;48.358;10.958;2022-07-23T07:10:36;96414.69;;;22.09
6498;BMP280;3282;48.358;10.958;2022-07-23T07:13:03;96408.69;;;22.01
6498;BMP280;3282;48.358;10.958;2022-07-23T07:15:29;96417.19;;;21.90
6498;BMP280;3282;48.358;10.958;2022-07-23T07:17:56;96414.22;;;21.84
6498;BMP280;3282;48.358;10.958;2022-07-23T07:20:23;96415.53;;;21.80
6498;BMP280;3282;48.358;10.958;2022-07-23T07:22:50;96408.31;;;21.73
6498;BMP280;3282;48.358;10.958;2022-07-23T07:25:16;96415.31;;;21.74
6498;BMP280;3282;48.358;10.958;2022-07-23T07:27:43;96418.81;;;21.74
6498;BMP280;3282;48.358;10.958;2022-07-23T07:30:11;96423.50;;;21.74
6498;BMP280;3282;48.358;10.958;2022-07-23T07:32:38;96430.00;;;21.76
6498;BMP280;3282;48.358;10.958;2022-07-23T07:35:22;96416.38;;;21.76
6498;BMP280;3282;48.358;10.958;2022-07-23T07:37:49;96435.88;;;21.75
6498;BMP280;3282;48.358;10.958;2022-07-23T07:40:15;96441.44;;;21.71
6498;BMP280;3282;48.358;10.958;2022-07-23T07:42:50;96440.38;;;21.69
6498;BMP280;3282;48.358;10.958;2022-07-23T07:45:19;96432.19;;;21.69
6498;BMP280;3282;48.358;10.958;2022-07-23T07:47:47;96422.72;;;21.73
6498;BMP280;3282;48.358;10.958;2022-07-23T07:50:13;96423.72;;;21.80
6498;BMP280;3282;48.358;10.958;2022-07-23T07:52:40;96427.31;;;21.89
6498;BMP280;3282;48.358;10.958;2022-07-23T07:55:08;96456.19;;;22.00
6498;BMP280;3282;48.358;10.958;2022-07-23T07:57:36;96448.13;;;22.09
6498;BMP280;3282;48.358;10.958;2022-07-23T08:00:05;96437.03;;;22.16
6498;BMP280;3282;48.358;10.958;2022-07-23T08:02:43;96416.88;;;22.27
6498;BMP280;3282;48.358;10.958;2022-07-23T08:05:10;96418.72;;;22.30
6498;BMP280;3282;48.358;10.958;2022-07-23T08:07:38;96423.16;;;22.37
6498;BMP280;3282;48.358;10.958;2022-07-23T08:10:07;96468.88;;;22.45
6498;BMP280;3282;48.358;10.958;2022-07-23T08:12:47;96459.50;;;22.47
6498;BMP280;3282;48.358;10.958;2022-07-23T08:15:16;96440.19;;;22.54
6498;BMP280;3282;48.358;10.958;2022-07-23T08:17:45;96438.19;;;22.67
6498;BMP280;3282;48.358;10.958;2022-07-23T08:20:14;96472.78;;;22.83
6498;BMP280;3282;48.358;10.958;2022-07-23T08:25:16;96467.09;;;23.13
6498;BMP280;3282;48.358;10.958;2022-07-23T08:27:45;96478.81;;;23.36
6498;BMP280;3282;48.358;10.958;2022-07-23T08:30:12;96471.91;;;23.89
6498;BMP280;3282;48.358;10.958;2022-07-23T08:32:57;96474.75;;;24.77
6498;BMP280;3282;48.358;10.958;2022-07-23T08:35:58;96467.88;;;25.75
6498;BMP280;3282;48.358;10.958;2022-07-23T08:38:20;96471.28;;;26.76
6498;BMP280;3282;48.358;10.958;2022-07-23T08:40:49;96484.50;;;27.42
6498;BMP280;3282;48.358;10.958;2022-07-23T08:43:22;96482.16;;;28.00
6498;BMP280;3282;48.358;10.958;2022-07-23T08:45:50;96494.25;;;28.44
6498;BMP280;3282;48.358;10.958;2022-07-23T08:48:20;96495.47;;;28.85
6498;BMP280;3282;48.358;10.958;2022-07-23T08:50:49;96493.63;;;29.23
6498;BMP280;3282;48.358;10.958;2022-07-23T08:53:17;96492.47;;;29.68
6498;BMP280;3282;48.358;10.958;2022-07-23T08:55:52;96495.47;;;30.02
6498;BMP280;3282;48.358;10.958;2022-07-23T08:58:20;96492.63;;;30.34
6498;BMP280;3282;48.358;10.958;2022-07-23T09:00:54;96491.75;;;30.66
6498;BMP280;3282;48.358;10.958;2022-07-23T09:03:23;96499.84;;;30.92
6498;BMP280;3282;48.358;10.958;2022-07-23T09:05:52;96504.41;;;31.18
6498;BMP280;3282;48.358;10.958;2022-07-23T09:08:33;96501.13;;;31.14
6498;BMP280;3282;48.358;10.958;2022-07-23T09:11:02;96501.88;;;31.32
6498;BMP280;3282;48.358;10.958;2022-07-23T09:13:49;96494.13;;;31.53
6498;BMP280;3282;48.358;10.958;2022-07-23T09:16:19;96495.84;;;31.84
6498;BMP280;3282;48.358;10.958;2022-07-23T09:18:48;96490.53;;;31.98
6498;BMP280;3282;48.358;10.958;2022-07-23T09:21:21;96495.97;;;32.21
6498;BMP280;3282;48.358;10.958;2022-07-23T09:28:57;96498.94;;;32.40
6498;BMP280;3282;48.358;10.958;2022-07-23T09:31:25;96498.69;;;32.43
6498;BMP280;3282;48.358;10.958;2022-07-23T09:34:06;96498.59;;;32.55
6498;BMP280;3282;48.358;10.958;2022-07-23T09:36:33;96484.91;;;32.74
6498;BMP280;3282;48.358;10.958;2022-07-23T09:39:00;96483.22;;;33.02
6498;BMP280;3282;48.358;10.958;2022-07-23T09:41:34;96491.84;;;32.92
6498;BMP280;3282;48.358;10.958;2022-07-23T09:44:09;96485.50;;;32.97
6498;BMP280;3282;48.358;10.958;2022-07-23T09:46:36;96482.56;;;33.20
6498;BMP280;3282;48.358;10.958;2022-07-23T09:51:52;96482.19;;;33.05
6498;BMP280;3282;48.358;10.958;2022-07-23T09:54:23;96477.84;;;33.09
6498;BMP280;3282;48.358;10.958;2022-07-23T09:56:53;96471.94;;;32.94
6498;BMP280;3282;48.358;10.958;2022-07-23T09:59:23;96471.94;;;32.94
6498;BMP280;3282;48.358;10.958;2022-07-23T10:01:53;96473.81;;;33.10
6498;BMP280;3282;48.358;10.958;2022-07-23T10:04:22;96473.38;;;33.00
6498;BMP280;3282;48.358;10.958;2022-07-23T10:07:08;96461.03;;;33.02
6498;BMP280;3282;48.358;10.958;2022-07-23T10:09:55;96458.50;;;33.04
6498;BMP280;3282;48.358;10.958;2022-07-23T10:12:31;96461.28;;;33.04
6498;BMP280;3282;48.358;10.958;2022-07-23T10:15:13;96463.81;;;33.02
6498;BMP280;3282;48.358;10.958;2022-07-23T10:17:40;96452.97;;;33.04
6498;BMP280;3282;48.358;10.958;2022-07-23T10:20:07;96450.78;;;33.21
6498;BMP280;3282;48.358;10.958;2022-07-23T10:22:47;96460.88;;;33.49
6498;BMP280;3282;48.358;10.958;2022-07-23T10:25:35;96461.84;;;33.77
6498;BMP280;3282;48.358;10.958;2022-07-23T10:31:17;96456.88;;;33.69
6498;BMP280;3282;48.358;10.958;2022-07-23T10:34:23;96456.34;;;33.46
6498;BMP280;3282;48.358;10.958;2022-07-23T10:37:22;96458.78;;;33.31
6498;BMP280;3282;48.358;10.958;2022-07-23T10:40:14;96450.19;;;33.34
6498;BMP280;3282;48.358;10.958;2022-07-23T10:42:41;96451.22;;;33.31
6498;BMP280;3282;48.358;10.958;2022-07-23T10:45:34;96448.16;;;33.35
6498;BMP280;3282;48.358;10.958;2022-07-23T10:48:23;96443.56;;;33.62
6498;BMP280;3282;48.358;10.958;2022-07-23T10:51:09;96451.28;;;33.50
6498;BMP280;3282;48.358;10.958;2022-07-23T10:56:50;96444.19;;;33.24
6498;BMP280;3282;48.358;10.958;2022-07-23T10:59:17;96438.28;;;33.39
6498;BMP280;3282;48.358;10.958;2022-07-23T11:01:44;96436.59;;;33.31
6498;BMP280;3282;48.358;10.958;2022-07-23T11:04:11;96434.00;;;33.08
6498;BMP280;3282;48.358;10.958;2022-07-23T11:09:28;96433.56;;;32.67
6498;BMP280;3282;48.358;10.958;2022-07-23T11:15:08;96421.81;;;32.86
6498;BMP280;3282;48.358;10.958;2022-07-23T11:25:04;96420.53;;;33.48
6498;BMP280;3282;48.358;10.958;2022-07-23T11:27:42;96421.84;;;33.66
6498;BMP280;3282;48.358;10.958;2022-07-23T11:30:37;96420.53;;;33.48
6498;BMP280;3282;48.358;10.958;2022-07-23T11:35:38;96430.13;;;33.47
6498;BMP280;3282;48.358;10.958;2022-07-23T11:38:16;96420.28;;;33.21
6498;BMP280;3282;48.358;10.958;2022-07-23T11:40:48;96415.78;;;32.88
6498;BMP280;3282;48.358;10.958;2022-07-23T11:43:16;96422.47;;;32.67
6498;BMP280;3282;48.358;10.958;2022-07-23T11:45:49;96425.09;;;32.54
6498;BMP280;3282;48.358;10.958;2022-07-23T11:48:29;96426.66;;;32.43
6498;BMP280;3282;48.358;10.958;2022-07-23T11:50:57;96420.91;;;32.30
6498;BMP280;3282;48.358;10.958;2022-07-23T11:53:34;96414.72;;;32.12
6498;BMP280;3282;48.358;10.958;2022-07-23T11:56:05;96415.72;;;32.15
6498;BMP280;3282;48.358;10.958;2022-07-23T11:58:32;96401.97;;;31.98
6498;BMP280;3282;48.358;10.958;2022-07-23T12:00:59;96397.75;;;31.74
6498;BMP280;3282;48.358;10.958;2022-07-23T12:03:26;96384.69;;;31.69
6498;BMP280;3282;48.358;10.958;2022-07-23T12:05:57;96401.78;;;31.73
6498;BMP280;3282;48.358;10.958;2022-07-23T12:08:24;96399.84;;;31.34
6498;BMP280;3282;48.358;10.958;2022-07-23T12:10:51;96385.56;;;31.07
6498;BMP280;3282;48.358;10.958;2022-07-23T12:13:20;96385.81;;;31.09
6498;BMP280;3282;48.358;10.958;2022-07-23T12:15:50;96375.72;;;31.40
6498;BMP280;3282;48.358;10.958;2022-07-23T12:18:19;96383.72;;;31.61
6498;BMP280;3282;48.358;10.958;2022-07-23T12:20:52;96373.88;;;31.65
6498;BMP280;3282;48.358;10.958;2022-07-23T12:23:21;96374.94;;;31.45
6498;BMP280;3282;48.358;10.958;2022-07-23T12:25:49;96385.78;;;31.32
6498;BMP280;3282;48.358;10.958;2022-07-23T12:28:36;96400.41;;;31.04
6498;BMP280;3282;48.358;10.958;2022-07-23T12:31:04;96404.16;;;30.78
6498;BMP280;3282;48.358;10.958;2022-07-23T12:33:37;96392.34;;;30.66
6498;BMP280;3282;48.358;10.958;2022-07-23T12:36:06;96401.06;;;30.58
6498;BMP280;3282;48.358;10.958;2022-07-23T12:38:47;96403.09;;;30.64
6498;BMP280;3282;48.358;10.958;2022-07-23T12:41:14;96408.16;;;30.82
6498;BMP280;3282;48.358;10.958;2022-07-23T12:43:43;96416.44;;;30.99
6498;BMP280;3282;48.358;10.958;2022-07-23T12:46:18;96410.69;;;31.20
6498;BMP280;3282;48.358;10.958;2022-07-23T12:51:17;96406.41;;;31.42
6498;BMP280;3282;48.358;10.958;2022-07-23T12:56:28;96403.63;;;30.91
6498;BMP280;3282;48.358;10.958;2022-07-23T12:59:04;96402.41;;;30.80
6498;BMP280;3282;48.358;10.958;2022-07-23T13:01:45;96414.19;;;30.81
6498;BMP280;3282;48.358;10.958;2022-07-23T13:04:21;96409.91;;;30.68
6498;BMP280;3282;48.358;10.958;2022-07-23T13:06:50;96406.34;;;30.51
6498;BMP280;3282;48.358;10.958;2022-07-23T13:09:19;96408.38;;;30.56
6498;BMP280;3282;48.358;10.958;2022-07-23T13:11:47;96400.84;;;30.62
6498;BMP280;3282;48.358;10.958;2022-07-23T13:14:15;96412.13;;;30.53
6498;BMP280;3282;48.358;10.958;2022-07-23T13:16:43;96406.59;;;30.53
6498;BMP280;3282;48.358;10.958;2022-07-23T13:19:11;96390.53;;;30.51
6498;BMP280;3282;48.358;10.958;2022-07-23T13:21:39;96393.31;;;30.57
6498;BMP280;3282;48.358;10.958;2022-07-23T13:24:11;96405.88;;;30.64
6498;BMP280;3282;48.358;10.958;2022-07-23T13:26:39;96402.59;;;30.60
6498;BMP280;3282;48.358;10.958;2022-07-23T13:29:06;96410.13;;;30.59
6498;BMP280;3282;48.358;10.958;2022-07-23T13:31:36;96397.06;;;30.48
6498;BMP280;3282;48.358;10.958;2022-07-23T13:34:04;96407.31;;;30.36
6498;BMP280;3282;48.358;10.958;2022-07-23T13:36:33;96411.84;;;30.39
6498;BMP280;3282;48.358;10.958;2022-07-23T13:39:00;96414.34;;;30.49
6498;BMP280;3282;48.358;10.958;2022-07-23T13:41:28;96413.91;;;30.67
6498;BMP280;3282;48.358;10.958;2022-07-23T13:43:56;96406.38;;;30.73
6498;BMP280;3282;48.358;10.958;2022-07-23T13:46:23;96419.97;;;30.94
6498;BMP280;3282;48.358;10.958;2022-07-23T13:48:50;96412.69;;;30.97
6498;BMP280;3282;48.358;10.958;2022-07-23T13:51:17;96414.22;;;31.04
6498;BMP280;3282;48.358;10.958;2022-07-23T13:53:46;96414.69;;;31.13
6498;BMP280;3282;48.358;10.958;2022-07-23T13:56:12;96407.16;;;31.20
6498;BMP280;3282;48.358;10.958;2022-07-23T13:58:39;96411.66;;;31.17
6498;BMP280;3282;48.358;10.958;2022-07-23T14:01:07;96403.38;;;31.17
6498;BMP280;3282;48.358;10.958;2022-07-23T14:03:33;96399.63;;;31.14
6498;BMP280;3282;48.358;10.958;2022-07-23T14:06:00;96397.09;;;30.99
6498;BMP280;3282;48.358;10.958;2022-07-23T14:08:27;96398.88;;;31.03
6498;BMP280;3282;48.358;10.958;2022-07-23T14:10:53;96394.88;;;31.04
6498;BMP280;3282;48.358;10.958;2022-07-23T14:13:20;96398.84;;;30.97
6498;BMP280;3282;48.358;10.958;2022-07-23T14:15:47;96406.69;;;30.93
6498;BMP280;3282;48.358;10.958;2022-07-23T14:18:16;96401.88;;;30.88
6498;BMP280;3282;48.358;10.958;2022-07-23T14:20:43;96399.63;;;30.86
6498;BMP280;3282;48.358;10.958;2022-07-23T14:23:09;96408.91;;;30.83
6498;BMP280;3282;48.358;10.958;2022-07-23T14:25:38;96386.28;;;30.84
6498;BMP280;3282;48.358;10.958;2022-07-23T14:28:05;96392.59;;;30.91
6498;BMP280;3282;48.358;10.958;2022-07-23T14:30:31;96394.09;;;31.09
6498;BMP280;3282;48.358;10.958;2022-07-23T14:33:00;96397.84;;;31.17
6498;BMP280;3282;48.358;10.958;2022-07-23T14:35:27;96390.56;;;31.14
6498;BMP280;3282;48.358;10.958;2022-07-23T14:37:53;96388.31;;;31.18
6498;BMP280;3282;48.358;10.958;2022-07-23T14:40:20;96388.06;;;31.27
6498;BMP280;3282;48.358;10.958;2022-07-23T14:42:49;96385.53;;;31.29
6498;BMP280;3282;48.358;10.958;2022-07-23T14:45:15;96392.06;;;31.38
6498;BMP280;3282;48.358;10.958;2022-07-23T14:47:45;96386.00;;;31.45
6498;BMP280;3282;48.358;10.958;2022-07-23T14:50:13;96371.69;;;31.41
6498;BMP280;3282;48.358;10.958;2022-07-23T14:52:40;96393.56;;;31.39
6498;BMP280;3282;48.358;10.958;2022-07-23T14:55:08;96389.06;;;31.19
6498;BMP280;3282;48.358;10.958;2022-07-23T14:57:34;96385.81;;;30.97
6498;BMP280;3282;48.358;10.958;2022-07-23T15:00:03;96400.38;;;30.81
6498;BMP280;3282;48.358;10.958;2022-07-23T15:02:31;96393.31;;;30.57
6498;BMP280;3282;48.358;10.958;2022-07-23T15:04:58;96398.03;;;30.34
6498;BMP280;3282;48.358;10.958;2022-07-23T15:07:28;96401.97;;;30.15
6498;BMP280;3282;48.358;10.958;2022-07-23T15:09:58;96402.38;;;29.97
6498;BMP280;3282;48.358;10.958;2022-07-23T15:12:25;96405.59;;;29.84